createdAt,value
2022-09-03T00:00:49.454Z,93.90
2022-09-03T00:03:31.593Z,94.00
2022-09-03T00:06:13.890Z,94.10
2022-09-03T00:08:50.891Z,94.10
2022-09-03T00:11:25.994Z,94.10
2022-09-03T00:14:04.791Z,94.10
2022-09-03T00:17:00.841Z,94.20
2022-09-03T00:19:33.671Z,94.10
2022-09-03T00:22:13.704Z,94.20
2022-09-03T00:24:42.154Z,94.20
2022-09-03T00:27:15.521Z,94.30
2022-09-03T00:29:50.939Z,94.30
2022-09-03T00:32:47.163Z,94.20
2022-09-03T00:35:31.484Z,94.40
2022-09-03T00:37:59.926Z,94.40
2022-09-03T00:40:32.771Z,94.40
2022-09-03T00:43:18.699Z,94.40
2022-09-03T00:46:07.313Z,94.60
2022-09-03T00:48:57.858Z,94.50
2022-09-03T00:51:33.536Z,94.50
2022-09-03T00:54:08.977Z,94.40
2022-09-03T00:56:56.991Z,94.30
2022-09-03T00:59:38.688Z,94.30
2022-09-03T01:02:16.053Z,94.20
2022-09-03T01:04:52.056Z,94.20
2022-09-03T01:07:33.041Z,94.20
2022-09-03T01:10:26.161Z,94.20
2022-09-03T01:13:00.423Z,94.10
2022-09-03T01:15:45.285Z,94.20
2022-09-03T01:18:19.052Z,94.20
2022-09-03T01:21:05.872Z,94.30
2022-09-03T01:23:48.739Z,94.30
2022-09-03T01:26:22.893Z,94.30
2022-09-03T01:29:12.637Z,94.30
2022-09-03T01:31:58.062Z,94.30
2022-09-03T01:34:30.764Z,94.30
2022-09-03T01:37:10.199Z,94.40
2022-09-03T01:39:55.916Z,94.40
2022-09-03T01:42:35.504Z,94.30
2022-09-03T01:45:22.579Z,94.30
2022-09-03T01:48:13.033Z,94.30
2022-09-03T01:50:43.179Z,94.30
2022-09-03T01:53:16.196Z,94.40
2022-09-03T01:56:21.509Z,94.50
2022-09-03T01:59:07.056Z,94.60
2022-09-03T02:01:46.646Z,94.80
2022-09-03T02:04:20.110Z,94.90
2022-09-03T02:06:48.956Z,94.90
2022-09-03T02:09:17.326Z,95.00
2022-09-03T02:11:46.895Z,95.10
2022-09-03T02:14:13.888Z,95.10
2022-09-03T02:16:40.793Z,95.10
2022-09-03T02:19:11.429Z,95.00
2022-09-03T02:21:40.322Z,95.00
2022-09-03T02:24:08.685Z,95.00
2022-09-03T02:26:36.268Z,95.10
2022-09-03T02:29:03.899Z,95.20
2022-09-03T02:31:31.028Z,95.20
2022-09-03T02:33:58.243Z,95.10
2022-09-03T02:36:28.490Z,95.20
2022-09-03T02:38:55.546Z,95.20
2022-09-03T02:41:24.131Z,95.40
2022-09-03T02:44:01.569Z,95.40
2022-09-03T02:46:51.988Z,95.60
2022-09-03T02:49:18.972Z,95.60
2022-09-03T02:51:45.840Z,95.70
2022-09-03T02:54:16.746Z,95.70
2022-09-03T02:56:48.360Z,95.70
2022-09-03T02:59:18.065Z,95.70
2022-09-03T03:01:46.602Z,95.70
2022-09-03T03:04:14.048Z,95.70
2022-09-03T03:06:40.977Z,95.70
2022-09-03T03:09:08.559Z,95.70
2022-09-03T03:11:37.049Z,95.70
2022-09-03T03:14:04.136Z,95.70
2022-09-03T03:16:31.140Z,95.70
2022-09-03T03:18:58.358Z,95.70
2022-09-03T03:21:25.206Z,95.70
2022-09-03T03:23:52.369Z,95.70
2022-09-03T03:26:20.692Z,95.70
2022-09-03T03:28:49.022Z,95.70
2022-09-03T03:31:18.889Z,95.70
2022-09-03T03:33:51.185Z,95.70
2022-09-03T03:36:18.092Z,95.70
2022-09-03T03:38:45.353Z,95.70
2022-09-03T03:41:19.119Z,95.70
2022-09-03T03:43:45.967Z,95.70
2022-09-03T03:46:12.875Z,95.70
2022-09-03T03:48:39.768Z,95.70
2022-09-03T03:51:09.108Z,95.70
2022-09-03T03:53:37.473Z,95.70
2022-09-03T03:56:07.093Z,95.70
2022-09-03T03:58:34.634Z,95.70
2022-09-03T04:01:22.381Z,95.70
2022-09-03T04:03:49.836Z,95.70
2022-09-03T04:06:19.295Z,95.70
2022-09-03T04:08:49.704Z,95.70
2022-09-03T04:11:19.918Z,95.70
2022-09-03T04:13:47.825Z,95.70
2022-09-03T04:16:20.201Z,95.70
2022-09-03T04:18:49.050Z,95.70
2022-09-03T04:21:21.705Z,95.70
2022-09-03T04:23:49.997Z,95.70
2022-09-03T04:26:19.648Z,95.70
2022-09-03T04:28:46.890Z,95.70
2022-09-03T04:31:16.593Z,95.70
2022-09-03T04:33:43.882Z,95.70
2022-09-03T04:36:16.939Z,95.70
2022-09-03T04:38:45.155Z,95.70
2022-09-03T04:41:14.048Z,95.70
2022-09-03T04:43:43.372Z,95.70
2022-09-03T04:46:17.671Z,95.70
2022-09-03T04:48:48.609Z,95.70
2022-09-03T04:51:17.777Z,95.70
2022-09-03T04:53:46.468Z,95.70
2022-09-03T04:56:15.075Z,95.70
2022-09-03T04:58:44.226Z,95.70
2022-09-03T05:01:13.159Z,95.70
2022-09-03T05:03:40.138Z,95.70
2022-09-03T05:06:08.713Z,95.70
2022-09-03T05:08:36.864Z,95.70
2022-09-03T05:11:07.893Z,95.70
2022-09-03T05:13:36.963Z,95.70
2022-09-03T05:16:09.707Z,95.70
2022-09-03T05:18:37.051Z,95.70
2022-09-03T05:21:06.634Z,95.70
2022-09-03T05:23:37.915Z,95.70
2022-09-03T05:26:10.980Z,95.70
2022-09-03T05:28:40.525Z,95.70
2022-09-03T05:31:28.229Z,95.70
2022-09-03T05:34:00.481Z,95.70
2022-09-03T05:36:29.868Z,95.70
2022-09-03T05:38:58.443Z,95.70
2022-09-03T05:41:26.741Z,95.70
2022-09-03T05:43:58.925Z,95.70
2022-09-03T05:46:39.947Z,95.70
2022-09-03T05:49:07.958Z,95.70
2022-09-03T05:51:36.437Z,95.70
2022-09-03T05:54:03.917Z,95.70
2022-09-03T05:56:36.848Z,95.70
2022-09-03T05:59:09.293Z,95.70
2022-09-03T06:01:41.250Z,95.70
2022-09-03T06:04:14.761Z,95.70
2022-09-03T06:06:43.541Z,95.70
2022-09-03T06:09:23.288Z,95.70
2022-09-03T06:11:50.845Z,95.70
2022-09-03T06:14:20.204Z,95.70
2022-09-03T06:16:52.777Z,95.70
2022-09-03T06:19:20.205Z,95.70
2022-09-03T06:21:47.441Z,95.70
2022-09-03T06:24:26.336Z,95.70
2022-09-03T06:26:54.734Z,95.70
2022-09-03T06:29:21.992Z,95.70
2022-09-03T06:31:48.957Z,95.70
2022-09-03T06:34:18.580Z,95.70
2022-09-03T06:36:46.174Z,95.70
2022-09-03T06:39:13.150Z,95.70
2022-09-03T06:41:40.157Z,95.70
2022-09-03T06:44:11.650Z,95.70
2022-09-03T06:46:42.318Z,95.70
2022-09-03T06:49:10.017Z,95.70
2022-09-03T06:51:38.013Z,95.70
2022-09-03T06:54:09.389Z,95.70
2022-09-03T06:56:40.649Z,95.70
2022-09-03T06:59:12.669Z,95.40
2022-09-03T07:01:44.058Z,95.40
2022-09-03T07:04:12.650Z,95.20
2022-09-03T07:06:40.901Z,94.50
2022-09-03T07:09:08.431Z,94.60
2022-09-03T07:11:36.483Z,94.40
2022-09-03T07:14:05.386Z,94.40
2022-09-03T07:16:37.082Z,93.60
2022-09-03T07:19:05.428Z,93.20
2022-09-03T07:21:34.232Z,92.80
2022-09-03T07:24:02.422Z,92.20
2022-09-03T07:26:31.033Z,92.10
2022-09-03T07:28:59.082Z,91.70
2022-09-03T07:31:28.796Z,91.30
2022-09-03T07:34:06.044Z,90.70
2022-09-03T07:36:46.867Z,90.10
2022-09-03T07:39:16.446Z,89.50
2022-09-03T07:41:45.816Z,88.80
2022-09-03T07:44:15.381Z,87.70
2022-09-03T07:46:43.543Z,87.80
2022-09-03T07:49:19.902Z,87.40
2022-09-03T07:51:50.527Z,86.60
2022-09-03T07:54:17.386Z,84.80
2022-09-03T07:56:44.322Z,84.40
2022-09-03T07:59:12.057Z,84.70
2022-09-03T08:01:41.303Z,84.50
2022-09-03T08:04:09.814Z,83.70
2022-09-03T08:06:37.632Z,82.90
2022-09-03T08:09:07.509Z,83.00
2022-09-03T08:11:38.159Z,82.60
2022-09-03T08:14:10.046Z,82.70
2022-09-03T08:16:39.605Z,82.40
2022-09-03T08:19:09.732Z,80.60
2022-09-03T08:21:37.028Z,80.40
2022-09-03T08:24:04.297Z,80.10
2022-09-03T08:26:39.515Z,80.50
2022-09-03T08:29:06.901Z,80.10
2022-09-03T08:31:34.971Z,80.40
2022-09-03T08:34:07.128Z,80.90
2022-09-03T08:36:37.017Z,80.90
2022-09-03T08:39:10.050Z,80.90
2022-09-03T08:41:56.995Z,80.20
2022-09-03T08:44:56.787Z,80.30
2022-09-03T08:47:34.825Z,78.90
2022-09-03T08:50:19.377Z,78.80
2022-09-03T08:52:50.069Z,78.30
2022-09-03T08:55:26.379Z,77.50
2022-09-03T08:58:14.243Z,77.00
2022-09-03T09:00:55.817Z,76.30
2022-09-03T09:03:50.353Z,74.70
2022-09-03T09:06:48.390Z,73.30
2022-09-03T09:09:35.447Z,72.80
2022-09-03T09:12:18.199Z,72.60
2022-09-03T09:15:10.766Z,72.00
2022-09-03T09:17:54.747Z,72.50
2022-09-03T09:20:29.727Z,71.10
2022-09-03T09:23:06.580Z,70.10
2022-09-03T09:25:50.600Z,70.40
2022-09-03T09:28:18.855Z,70.40
2022-09-03T09:30:49.410Z,70.30
2022-09-03T09:33:17.227Z,69.90
2022-09-03T09:35:44.997Z,68.60
2022-09-03T09:38:12.372Z,67.60
2022-09-03T09:40:45.076Z,68.90
2022-09-03T09:43:14.034Z,68.20
2022-09-03T09:45:45.689Z,68.20
2022-09-03T09:48:34.961Z,68.20
2022-09-03T09:51:20.025Z,67.20
2022-09-03T09:53:47.000Z,66.90
2022-09-03T09:56:27.842Z,66.90
2022-09-03T09:59:09.993Z,67.20
2022-09-03T10:01:46.729Z,67.80
2022-09-03T10:04:27.775Z,66.20
2022-09-03T10:07:03.356Z,66.10
2022-09-03T10:09:32.878Z,65.80
2022-09-03T10:12:24.563Z,65.90
2022-09-03T10:15:08.142Z,66.80
2022-09-03T10:17:47.195Z,65.20
2022-09-03T10:20:27.676Z,64.40
2022-09-03T10:22:57.533Z,65.60
2022-09-03T10:25:56.167Z,65.50
2022-09-03T10:28:31.347Z,66.20
2022-09-03T10:31:30.223Z,65.90
2022-09-03T10:34:17.665Z,66.00
2022-09-03T10:37:12.302Z,67.30
2022-09-03T10:39:54.509Z,66.30
2022-09-03T10:42:49.225Z,64.70
2022-09-03T10:45:37.778Z,65.30
2022-09-03T10:48:31.809Z,64.70
2022-09-03T10:51:25.101Z,64.00
2022-09-03T10:53:55.091Z,64.30
2022-09-03T10:56:27.562Z,63.80
2022-09-03T10:59:28.605Z,62.30
2022-09-03T11:02:35.323Z,62.80
2022-09-03T11:05:07.760Z,63.30
2022-09-03T11:08:00.959Z,62.90
2022-09-03T11:10:35.770Z,62.40
2022-09-03T11:13:26.524Z,63.20
2022-09-03T11:16:01.590Z,64.20
2022-09-03T11:18:50.337Z,64.40
2022-09-03T11:21:22.064Z,63.90
2022-09-03T11:23:55.256Z,63.40
2022-09-03T11:26:30.619Z,64.60
2022-09-03T11:29:26.769Z,64.80
2022-09-03T11:32:11.829Z,63.90
2022-09-03T11:34:46.472Z,64.30
2022-09-03T11:37:25.294Z,63.90
2022-09-03T11:39:56.981Z,64.80
2022-09-03T11:42:30.676Z,64.70
2022-09-03T11:45:33.207Z,66.00
2022-09-03T11:48:00.096Z,63.80
2022-09-03T11:50:29.341Z,64.50
2022-09-03T11:53:14.362Z,64.90
2022-09-03T11:55:50.599Z,65.70
2022-09-03T11:58:30.376Z,65.00
2022-09-03T12:01:30.249Z,63.10
2022-09-03T12:04:04.726Z,61.30
2022-09-03T12:07:07.126Z,62.30
2022-09-03T12:09:43.758Z,61.50
2022-09-03T12:12:45.706Z,61.80
2022-09-03T12:15:50.125Z,62.50
2022-09-03T12:18:29.567Z,62.10
2022-09-03T12:20:56.387Z,59.60
2022-09-03T12:23:29.150Z,60.90
2022-09-03T12:25:56.496Z,62.20
2022-09-03T12:28:24.981Z,61.10
2022-09-03T12:30:53.741Z,62.30
2022-09-03T12:33:22.540Z,62.40
2022-09-03T12:36:00.695Z,61.80
2022-09-03T12:38:29.907Z,63.10
2022-09-03T12:43:51.708Z,61.60
2022-09-03T12:46:26.661Z,62.40
2022-09-03T12:52:06.199Z,63.50
2022-09-03T12:54:36.715Z,63.50
2022-09-03T12:57:04.167Z,61.20
2022-09-03T12:59:34.757Z,63.20
2022-09-03T13:02:12.901Z,62.30
2022-09-03T13:04:40.291Z,61.00
2022-09-03T13:07:22.141Z,61.20
2022-09-03T13:09:49.907Z,61.70
2022-09-03T13:13:07.844Z,61.80
2022-09-03T13:15:35.580Z,63.00
2022-09-03T13:18:11.955Z,62.40
2022-09-03T13:21:07.897Z,62.70
2022-09-03T13:23:37.788Z,61.50
2022-09-03T13:26:41.902Z,62.40
2022-09-03T13:30:08.007Z,63.40
2022-09-03T13:33:08.108Z,63.00
2022-09-03T13:36:02.350Z,64.00
2022-09-03T13:38:44.083Z,64.40
2022-09-03T13:41:25.654Z,62.60
2022-09-03T13:44:13.611Z,63.10
2022-09-03T13:46:55.520Z,63.50
2022-09-03T13:50:08.396Z,63.60
2022-09-03T13:52:47.207Z,63.50
2022-09-03T13:55:40.628Z,64.70
2022-09-03T13:58:36.199Z,64.10
2022-09-03T14:01:19.700Z,63.10
2022-09-03T14:03:49.701Z,62.20
2022-09-03T14:06:47.074Z,63.00
2022-09-03T14:09:54.421Z,62.90
2022-09-03T14:12:44.333Z,63.30
2022-09-03T14:15:38.265Z,63.20
2022-09-03T14:18:43.085Z,63.30
2022-09-03T14:21:20.763Z,63.60
2022-09-03T14:24:24.221Z,64.80
2022-09-03T14:27:02.581Z,64.20
2022-09-03T14:29:34.040Z,63.80
2022-09-03T14:32:24.212Z,64.30
2022-09-03T14:35:07.787Z,62.60
2022-09-03T14:38:03.039Z,63.30
2022-09-03T14:40:54.205Z,62.30
2022-09-03T14:43:42.913Z,62.20
2022-09-03T14:46:33.898Z,63.00
2022-09-03T14:49:14.516Z,63.80
2022-09-03T14:51:57.650Z,63.10
2022-09-03T14:54:39.718Z,62.10
2022-09-03T14:57:09.596Z,62.40
2022-09-03T14:59:39.440Z,61.80
2022-09-03T15:02:21.375Z,62.80
2022-09-03T15:05:12.230Z,62.30
2022-09-03T15:07:52.848Z,63.20
2022-09-03T15:10:43.994Z,63.80
2022-09-03T15:13:12.411Z,63.90
2022-09-03T15:15:42.493Z,63.70
2022-09-03T15:18:33.330Z,63.40
2022-09-03T15:21:31.480Z,64.40
2022-09-03T15:24:42.972Z,64.20
2022-09-03T15:27:19.339Z,65.20
2022-09-03T15:29:58.535Z,64.60
2022-09-03T15:32:49.003Z,64.60
2022-09-03T15:35:46.159Z,65.80
2022-09-03T15:38:40.089Z,67.40
2022-09-03T15:41:29.973Z,66.60
2022-09-03T15:44:01.410Z,64.20
2022-09-03T15:46:50.220Z,64.30
2022-09-03T15:49:59.285Z,64.50
2022-09-03T15:52:31.771Z,65.60
2022-09-03T15:55:10.007Z,66.00
2022-09-03T15:58:19.359Z,66.80
2022-09-03T16:00:53.130Z,67.50
2022-09-03T16:03:56.081Z,68.30
2022-09-03T16:06:49.577Z,68.30
2022-09-03T16:09:34.963Z,69.20
2022-09-03T16:12:28.088Z,68.70
2022-09-03T16:15:15.501Z,68.50
2022-09-03T16:18:06.932Z,68.90
2022-09-03T16:20:38.831Z,69.60
2022-09-03T16:23:23.902Z,69.40
2022-09-03T16:26:03.899Z,68.50
2022-09-03T16:28:42.881Z,68.40
2022-09-03T16:31:39.981Z,69.20
2022-09-03T16:34:23.120Z,69.60
2022-09-03T16:37:32.425Z,69.70
2022-09-03T16:40:08.454Z,71.00
2022-09-03T16:43:39.470Z,71.60
2022-09-03T16:46:17.122Z,72.80
2022-09-03T16:48:50.070Z,73.00
2022-09-03T16:51:23.826Z,73.40
2022-09-03T16:54:05.848Z,73.80
2022-09-03T16:56:53.478Z,73.50
2022-09-03T16:59:41.106Z,73.50
2022-09-03T17:02:46.395Z,74.00
2022-09-03T17:05:31.217Z,74.00
2022-09-03T17:08:08.007Z,73.90
2022-09-03T17:10:52.129Z,74.50
2022-09-03T17:13:40.887Z,74.70
2022-09-03T17:16:26.564Z,75.40
2022-09-03T17:19:31.186Z,75.60
2022-09-03T17:22:24.907Z,76.00
2022-09-03T17:24:55.087Z,77.20
2022-09-03T17:27:45.237Z,78.00
2022-09-03T17:30:23.289Z,78.60
2022-09-03T17:33:01.537Z,78.80
2022-09-03T17:35:44.516Z,79.10
2022-09-03T17:38:11.607Z,79.10
2022-09-03T17:41:02.799Z,78.90
2022-09-03T17:44:18.643Z,78.60
2022-09-03T17:46:55.598Z,78.20
2022-09-03T17:49:29.391Z,77.60
2022-09-03T17:52:08.948Z,76.80
2022-09-03T17:54:45.603Z,76.40
2022-09-03T17:57:26.757Z,76.40
2022-09-03T17:59:59.740Z,76.20
2022-09-03T18:02:51.168Z,75.90
2022-09-03T18:05:30.352Z,75.90
2022-09-03T18:08:19.912Z,77.40
2022-09-03T18:10:55.395Z,79.30
2022-09-03T18:13:34.791Z,80.60
2022-09-03T18:16:17.110Z,81.60
2022-09-03T18:18:47.860Z,82.20
2022-09-03T18:21:39.590Z,82.90
2022-09-03T18:24:42.036Z,83.50
2022-09-03T18:28:03.151Z,84.00
2022-09-03T18:30:48.889Z,84.40
2022-09-03T18:33:43.248Z,84.70
2022-09-03T18:36:30.147Z,85.00
2022-09-03T18:39:35.975Z,85.10
2022-09-03T18:42:37.879Z,85.40
2022-09-03T18:46:05.499Z,85.50
2022-09-03T18:48:59.628Z,85.70
2022-09-03T18:52:02.786Z,85.90
2022-09-03T18:55:18.108Z,86.20
2022-09-03T18:58:31.902Z,86.40
2022-09-03T19:01:40.333Z,86.70
2022-09-03T19:04:30.116Z,86.80
2022-09-03T19:07:19.570Z,86.80
2022-09-03T19:10:39.461Z,86.80
2022-09-03T19:13:24.899Z,86.90
2022-09-03T19:16:21.126Z,86.90
2022-09-03T19:19:39.180Z,86.80
2022-09-03T19:22:29.537Z,86.80
2022-09-03T19:25:31.327Z,86.80
2022-09-03T19:31:35.500Z,86.70
2022-09-03T19:34:52.972Z,86.80
2022-09-03T19:37:53.538Z,86.80
2022-09-03T19:40:50.934Z,86.80
2022-09-03T19:43:45.031Z,86.80
2022-09-03T19:47:00.725Z,86.80
2022-09-03T19:50:07.862Z,86.90
2022-09-03T19:53:01.995Z,86.90
2022-09-03T19:56:06.648Z,86.90
2022-09-03T19:58:55.107Z,87.10
2022-09-03T20:01:58.093Z,87.10
2022-09-03T20:05:03.932Z,87.30
2022-09-03T20:07:51.150Z,87.50
2022-09-03T20:10:24.924Z,87.60
2022-09-03T20:12:59.174Z,87.90
2022-09-03T20:15:30.386Z,87.90
2022-09-03T20:18:04.333Z,88.20
2022-09-03T20:21:01.798Z,88.40
2022-09-03T20:23:43.826Z,88.50
2022-09-03T20:26:19.780Z,88.90
2022-09-03T20:28:56.383Z,89.10
2022-09-03T20:31:31.646Z,89.30
2022-09-03T20:34:20.487Z,89.60
2022-09-03T20:37:15.530Z,89.80
2022-09-03T20:39:48.586Z,90.10
2022-09-03T20:42:38.736Z,90.30
2022-09-03T20:45:17.596Z,90.60
2022-09-03T20:48:13.494Z,90.80
2022-09-03T20:50:49.466Z,91.10
2022-09-03T20:53:48.958Z,91.50
2022-09-03T20:56:23.239Z,91.60
2022-09-03T20:59:34.611Z,91.70
2022-09-03T21:02:26.010Z,91.90
2022-09-03T21:05:07.250Z,92.10
2022-09-03T21:08:06.975Z,92.40
2022-09-03T21:10:44.251Z,92.50
2022-09-03T21:13:28.225Z,92.70
2022-09-03T21:16:04.167Z,92.80
2022-09-03T21:18:59.005Z,93.00
2022-09-03T21:21:36.184Z,93.20
2022-09-03T21:24:20.468Z,93.20
2022-09-03T21:26:57.062Z,93.30
2022-09-03T21:29:29.070Z,93.40
2022-09-03T21:32:18.781Z,93.70
2022-09-03T21:35:08.152Z,93.80
2022-09-03T21:37:37.639Z,93.80
2022-09-03T21:40:07.997Z,93.90
2022-09-03T21:42:46.249Z,94.00
2022-09-03T21:45:33.957Z,94.10
2022-09-03T21:48:09.771Z,94.30
2022-09-03T21:51:00.878Z,94.50
2022-09-03T21:54:06.454Z,94.50
2022-09-03T21:57:12.260Z,94.70
2022-09-03T22:00:04.729Z,94.80
2022-09-03T22:02:33.125Z,94.70
2022-09-03T22:05:01.211Z,95.00
2022-09-03T22:08:05.803Z,95.20
2022-09-03T22:10:38.230Z,95.20
2022-09-03T22:13:35.674Z,95.40
2022-09-03T22:16:23.291Z,95.40
2022-09-03T22:18:50.411Z,95.20
2022-09-03T22:21:37.593Z,95.30
2022-09-03T22:24:43.075Z,95.40
2022-09-03T22:27:40.728Z,95.50
2022-09-03T22:30:20.105Z,95.70
2022-09-03T22:33:18.766Z,95.70
2022-09-03T22:36:17.747Z,95.70
2022-09-03T22:39:11.800Z,95.70
2022-09-03T22:42:10.206Z,95.70
2022-09-03T22:45:40.351Z,95.70
2022-09-03T22:48:09.809Z,95.70
2022-09-03T22:50:54.710Z,95.70
2022-09-03T22:53:40.078Z,95.70
2022-09-03T22:56:18.825Z,95.70
2022-09-03T22:59:05.701Z,95.70
2022-09-03T23:01:45.809Z,95.70
2022-09-03T23:04:35.747Z,95.70
2022-09-03T23:07:27.267Z,95.70
2022-09-03T23:10:01.964Z,95.70
2022-09-03T23:13:00.166Z,95.70
2022-09-03T23:15:30.531Z,95.70
2022-09-03T23:18:08.908Z,95.70
2022-09-03T23:20:40.475Z,95.70
2022-09-03T23:23:22.420Z,95.70
2022-09-03T23:26:08.243Z,95.70
2022-09-03T23:28:36.767Z,95.70
2022-09-03T23:31:29.853Z,95.70
2022-09-03T23:33:57.240Z,95.70
2022-09-03T23:37:10.237Z,95.70
2022-09-03T23:39:41.447Z,95.70
2022-09-03T23:42:30.860Z,95.70
2022-09-03T23:45:15.409Z,95.70
2022-09-03T23:48:01.609Z,95.70
2022-09-03T23:50:53.144Z,95.70
2022-09-03T23:53:37.350Z,95.70
2022-09-03T23:56:22.113Z,95.70
2022-09-03T23:58:55.647Z,95.70
